Time;durP1;ratioP1;P1;durP2;ratioP2;P2;SDS_P1;SDS_P2;PMS_P1;PMS_P2;Temp;Humidity;BMP_temperature;BMP_pressure;BME280_temperature;BME280_humidity;BME280_pressure;Samples;Min_cycle;Max_cycle;Signal;HPM_P1;HPM_P2
2022/12/17 13:07:45;;;;;;;;;;;4.10;57.10;;;;;;5030392;28;19927;-87
2022/12/17 13:10:20;;;;;;;;;;;4.00;57.00;;;;;;5032294;28;19931;-88
2022/12/17 13:12:46;;;;;;;;;;;4.10;57.00;;;;;;5023074;28;19928;-88
2022/12/17 13:15:15;;;;;;;;;;;4.10;56.90;;;;;;5027084;28;20016;-89
2022/12/17 13:17:53;;;;;;;;;;;4.10;56.70;;;;;;5040664;28;19921;-88
2022/12/17 13:20:24;;;;;;;;;;;4.00;56.50;;;;;;5027621;28;19917;-88
2022/12/17 13:22:52;;;;;;;;;;;4.00;56.30;;;;;;5023058;28;19933;-87
2022/12/17 13:25:19;;;;;;;;;;;4.00;56.20;;;;;;5032952;28;19917;-89
2022/12/17 13:27:44;;;;;;;;;;;4.00;56.30;;;;;;5029926;28;19923;-87
2022/12/17 13:30:16;;;;;;;;;;;4.00;56.50;;;;;;5027606;28;19930;-86
2022/12/17 13:32:45;;;;;;;;;;;4.00;56.40;;;;;;5038382;28;19982;-87
2022/12/17 13:35:17;;;;;;;;;;;3.90;56.20;;;;;;5029652;28;20019;-88
2022/12/17 13:37:45;;;;;;;;;;;3.90;56.00;;;;;;5024380;28;19928;-88
2022/12/17 13:40:21;;;;;;;;;;;3.90;55.90;;;;;;5042057;28;20012;-88
2022/12/17 13:42:47;;;;;;;;;;;3.90;55.70;;;;;;5015702;28;19975;-86
2022/12/17 13:45:17;;;;;;;;;;;3.80;55.70;;;;;;5024437;28;19917;-87
2022/12/17 13:47:42;;;;;;;;;;;3.80;55.50;;;;;;5022324;28;19960;-87
2022/12/17 13:50:18;;;;;;;;;;;3.70;55.40;;;;;;5025433;28;20359;-87
2022/12/17 13:52:44;;;;;;;;;;;3.70;55.50;;;;;;5035859;28;19967;-87
2022/12/17 13:55:17;;;;;;;;;;;3.70;55.60;;;;;;5024304;28;19968;-87
2022/12/17 13:57:46;;;;;;;;;;;3.60;55.50;;;;;;5027580;28;20346;-87
2022/12/17 14:00:25;;;;;;;;;;;3.60;55.50;;;;;;5026298;28;19917;-88
2022/12/17 14:02:51;;;;;;;;;;;3.60;55.60;;;;;;5037341;28;20347;-87
2022/12/17 14:05:36;;;;;;;;;;;3.60;55.70;;;;;;5025379;28;19924;-88
2022/12/17 14:08:02;;;;;;;;;;;3.50;55.90;;;;;;5027490;28;20045;-88
2022/12/17 14:10:28;;;;;;;;;;;3.50;56.10;;;;;;5024790;28;20279;-89
2022/12/17 14:13:04;;;;;;;;;;;3.50;56.00;;;;;;5019955;28;19932;-88
2022/12/17 14:15:30;;;;;;;;;;;3.50;55.80;;;;;;5024116;28;20252;-88
2022/12/17 14:17:57;;;;;;;;;;;3.50;55.60;;;;;;5025894;28;19921;-86
2022/12/17 14:20:34;;;;;;;;;;;3.50;55.50;;;;;;5026743;28;19917;-87
2022/12/17 14:22:59;;;;;;;;;;;3.40;55.30;;;;;;5018702;28;19940;-86
2022/12/17 14:25:27;;;;;;;;;;;3.40;55.10;;;;;;5028258;28;19917;-88
2022/12/17 14:27:59;;;;;;;;;;;3.30;54.90;;;;;;5028673;28;19992;-89
2022/12/17 14:30:36;;;;;;;;;;;3.30;54.60;;;;;;5028385;28;19943;-87
2022/12/17 14:33:02;;;;;;;;;;;3.20;54.40;;;;;;5020490;28;19921;-89
2022/12/17 14:35:29;;;;;;;;;;;3.20;54.20;;;;;;5025956;28;19918;-90
2022/12/17 14:37:54;;;;;;;;;;;3.10;54.00;;;;;;5025752;28;19925;-86
2022/12/17 14:40:21;;;;;;;;;;;3.10;53.80;;;;;;5024324;28;19928;-87
2022/12/17 14:42:46;;;;;;;;;;;3.00;53.70;;;;;;5027282;28;19964;-86
2022/12/17 14:45:15;;;;;;;;;;;2.90;53.50;;;;;;5024323;28;20007;-88
2022/12/17 14:47:51;;;;;;;;;;;2.90;53.30;;;;;;5023455;28;19932;-86
2022/12/17 14:50:16;;;;;;;;;;;2.80;53.30;;;;;;5020611;28;19924;-87
2022/12/17 14:52:42;;;;;;;;;;;2.80;53.10;;;;;;5023896;28;20368;-87
2022/12/17 14:55:21;;;;;;;;;;;2.70;52.80;;;;;;5023580;28;19983;-88
2022/12/17 14:57:46;;;;;;;;;;;2.60;52.70;;;;;;5024227;28;20363;-87
2022/12/17 15:00:12;;;;;;;;;;;2.50;52.70;;;;;;5026045;28;19932;-88
2022/12/17 15:02:38;;;;;;;;;;;2.50;52.70;;;;;;5017147;28;20031;-86
2022/12/17 15:05:04;;;;;;;;;;;2.40;52.60;;;;;;5018709;28;19917;-87
2022/12/17 15:07:30;;;;;;;;;;;2.40;52.70;;;;;;5025783;28;19922;-87
2022/12/17 15:09:55;;;;;;;;;;;2.40;52.80;;;;;;5028466;28;19917;-88
2022/12/17 15:12:22;;;;;;;;;;;2.30;52.70;;;;;;5023679;28;19931;-88
2022/12/17 15:14:47;;;;;;;;;;;2.20;52.60;;;;;;5024486;28;19913;-88
2022/12/17 15:17:13;;;;;;;;;;;2.10;52.70;;;;;;5024442;28;19927;-87
2022/12/17 15:19:39;;;;;;;;;;;2.10;52.70;;;;;;5025339;28;19925;-87
2022/12/17 15:22:04;;;;;;;;;;;2.00;52.40;;;;;;5024847;28;19952;-88
2022/12/17 15:24:30;;;;;;;;;;;2.00;52.40;;;;;;5020364;28;19921;-87
2022/12/17 15:26:56;;;;;;;;;;;1.90;52.90;;;;;;5017609;28;20544;-87
2022/12/17 15:29:23;;;;;;;;;;;1.90;52.70;;;;;;5005383;28;19925;-87
2022/12/17 15:31:49;;;;;;;;;;;1.80;52.70;;;;;;5022065;28;19975;-89
2022/12/17 15:34:14;;;;;;;;;;;1.70;52.60;;;;;;5023541;28;19921;-89
2022/12/17 15:36:40;;;;;;;;;;;1.70;52.40;;;;;;5025677;28;20535;-88
2022/12/17 15:39:05;;;;;;;;;;;1.60;52.30;;;;;;5045698;28;20364;-87
2022/12/17 15:44:15;;;;;;;;;;;1.50;52.10;;;;;;5017572;28;19932;-87
2022/12/17 15:46:41;;;;;;;;;;;1.50;52.20;;;;;;5024854;28;20028;-88
2022/12/17 15:49:06;;;;;;;;;;;1.40;52.00;;;;;;5033538;28;19919;-89
2022/12/17 15:51:32;;;;;;;;;;;1.30;51.90;;;;;;5027010;28;19917;-87
2022/12/17 15:53:57;;;;;;;;;;;1.30;51.80;;;;;;5026013;28;20509;-87
2022/12/17 15:56:24;;;;;;;;;;;1.20;51.60;;;;;;5023803;28;20009;-87
2022/12/17 15:58:49;;;;;;;;;;;1.10;51.40;;;;;;5028584;28;19940;-87
2022/12/17 16:01:15;;;;;;;;;;;1.00;51.30;;;;;;5026249;28;19917;-87
2022/12/17 16:03:41;;;;;;;;;;;1.00;51.30;;;;;;5030120;28;20688;-87
2022/12/17 16:06:06;;;;;;;;;;;1.00;51.40;;;;;;5047956;28;19909;-87
2022/12/17 16:08:32;;;;;;;;;;;0.80;51.40;;;;;;5034348;28;20252;-88
2022/12/17 16:10:57;;;;;;;;;;;0.80;51.40;;;;;;5028130;28;19969;-88
2022/12/17 16:13:23;;;;;;;;;;;0.70;51.10;;;;;;5016671;28;19975;-87
2022/12/17 16:15:58;;;;;;;;;;;0.70;51.00;;;;;;5041630;28;19921;-87
2022/12/17 16:18:24;;;;;;;;;;;0.60;51.20;;;;;;5045927;28;20815;-87
2022/12/17 16:20:49;;;;;;;;;;;0.60;51.70;;;;;;5030953;28;20008;-88
2022/12/17 16:23:15;;;;;;;;;;;0.60;51.80;;;;;;5034079;28;19922;-88
2022/12/17 16:25:40;;;;;;;;;;;0.60;51.70;;;;;;5032831;28;19913;-88
2022/12/17 16:28:06;;;;;;;;;;;0.50;51.60;;;;;;5036321;28;20331;-86
2022/12/17 16:30:32;;;;;;;;;;;0.50;51.50;;;;;;5033928;28;19913;-88
2022/12/17 16:32:58;;;;;;;;;;;0.40;51.30;;;;;;5033923;28;19922;-89
2022/12/17 16:35:23;;;;;;;;;;;0.40;51.30;;;;;;5032949;28;19914;-89
2022/12/17 16:37:49;;;;;;;;;;;0.30;51.10;;;;;;5034433;28;19914;-88
2022/12/17 16:40:14;;;;;;;;;;;0.30;51.10;;;;;;5031499;28;20028;-88
2022/12/17 16:42:40;;;;;;;;;;;0.20;51.10;;;;;;5033209;28;19925;-86
2022/12/17 16:45:06;;;;;;;;;;;0.10;51.10;;;;;;5031619;28;19956;-87
2022/12/17 16:47:32;;;;;;;;;;;0.10;50.90;;;;;;5032999;28;19913;-89
2022/12/17 16:49:58;;;;;;;;;;;0.00;50.90;;;;;;5033410;28;19967;-88
2022/12/17 16:52:24;;;;;;;;;;;0.00;50.90;;;;;;5049687;28;19921;-89
2022/12/17 16:54:49;;;;;;;;;;;0.00;51.00;;;;;;5033507;28;20326;-88
2022/12/17 16:57:15;;;;;;;;;;;0.00;51.00;;;;;;5033336;28;20427;-88
2022/12/17 16:59:40;;;;;;;;;;;0.00;51.20;;;;;;5033374;28;19913;-87
2022/12/17 17:02:10;;;;;;;;;;;0.00;51.10;;;;;;5050740;28;20431;-87
2022/12/17 17:04:36;;;;;;;;;;;-3276.70;50.90;;;;;;5033109;28;19910;-87
2022/12/17 17:07:01;;;;;;;;;;;-3276.70;50.70;;;;;;5033655;28;19935;-88
2022/12/17 17:09:27;;;;;;;;;;;-3276.60;50.70;;;;;;5048710;28;19963;-88
2022/12/17 17:11:56;;;;;;;;;;;-3276.60;50.80;;;;;;5034428;28;19936;-87
2022/12/17 17:14:21;;;;;;;;;;;-3276.60;50.90;;;;;;5048192;28;19929;-87
2022/12/17 17:16:47;;;;;;;;;;;-3276.60;51.30;;;;;;5033415;28;19924;-87
2022/12/17 17:19:13;;;;;;;;;;;-3276.60;51.50;;;;;;5048036;28;19913;-88
2022/12/17 17:21:46;;;;;;;;;;;-3276.60;51.60;;;;;;5049640;28;19920;-88
2022/12/17 17:24:14;;;;;;;;;;;-3276.60;51.50;;;;;;5032903;28;19921;-86
2022/12/17 17:26:40;;;;;;;;;;;-3276.60;51.60;;;;;;5050193;28;20451;-88
2022/12/17 17:29:06;;;;;;;;;;;-3276.60;51.60;;;;;;5032640;28;19914;-88
2022/12/17 17:31:32;;;;;;;;;;;-3276.60;51.80;;;;;;5048281;28;19920;-88
2022/12/17 17:33:58;;;;;;;;;;;-3276.70;51.80;;;;;;5049395;28;20004;-87
2022/12/17 17:36:24;;;;;;;;;;;-3276.60;51.80;;;;;;5047598;28;20016;-88
2022/12/17 17:38:51;;;;;;;;;;;-3276.60;51.60;;;;;;5048654;28;19917;-88
2022/12/17 17:41:20;;;;;;;;;;;-3276.60;51.70;;;;;;5033671;28;19914;-88
2022/12/17 17:43:46;;;;;;;;;;;-3276.60;51.60;;;;;;5033423;28;19927;-87
2022/12/17 17:46:13;;;;;;;;;;;-3276.60;51.40;;;;;;5047844;28;20536;-88
2022/12/17 17:48:40;;;;;;;;;;;-3276.50;50.90;;;;;;5033636;28;19963;-86
2022/12/17 17:51:13;;;;;;;;;;;-3276.50;50.70;;;;;;5032533;28;19996;-87
2022/12/17 17:53:39;;;;;;;;;;;-3276.40;50.90;;;;;;5032410;28;19921;-87
2022/12/17 17:56:05;;;;;;;;;;;-3276.40;51.00;;;;;;5033756;28;19975;-89
2022/12/17 17:58:31;;;;;;;;;;;-3276.40;50.90;;;;;;5031095;28;19914;-88
2022/12/17 18:00:57;;;;;;;;;;;-3276.40;51.00;;;;;;5035220;28;19913;-88
2022/12/17 18:03:23;;;;;;;;;;;-3276.30;50.90;;;;;;5037561;28;19983;-87
2022/12/17 18:05:48;;;;;;;;;;;-3276.30;50.80;;;;;;5032162;28;19996;-86
2022/12/17 18:08:13;;;;;;;;;;;-3276.20;50.80;;;;;;5033930;28;19921;-87
2022/12/17 18:10:39;;;;;;;;;;;-3276.20;50.90;;;;;;5033827;28;20372;-87
2022/12/17 18:15:48;;;;;;;;;;;-3276.10;50.90;;;;;;5032350;28;20382;-87
2022/12/17 18:18:14;;;;;;;;;;;-3276.10;50.90;;;;;;5047875;28;19913;-88
2022/12/17 18:20:39;;;;;;;;;;;-3276.00;50.80;;;;;;5047275;28;20599;-88
2022/12/17 18:23:05;;;;;;;;;;;-3276.00;50.40;;;;;;5032195;28;19928;-87
2022/12/17 18:25:32;;;;;;;;;;;-3275.90;50.00;;;;;;5032495;28;19924;-89
2022/12/17 18:27:58;;;;;;;;;;;-3275.90;49.80;;;;;;5032780;28;19952;-88
2022/12/17 18:30:23;;;;;;;;;;;-3275.80;49.70;;;;;;5031558;28;19913;-88
2022/12/17 18:32:48;;;;;;;;;;;-3275.70;49.40;;;;;;5046764;28;20012;-88
2022/12/17 18:35:14;;;;;;;;;;;-3275.60;49.30;;;;;;5030727;28;19913;-87
2022/12/17 18:37:39;;;;;;;;;;;-3275.60;49.40;;;;;;5046936;28;19921;-87
2022/12/17 18:40:05;;;;;;;;;;;-3275.50;49.30;;;;;;5046220;28;19917;-90
2022/12/17 18:45:15;;;;;;;;;;;-3275.30;49.20;;;;;;5033097;28;19941;-88
2022/12/17 18:47:43;;;;;;;;;;;-3275.30;49.20;;;;;;5047172;28;19913;-88
2022/12/17 18:50:08;;;;;;;;;;;-3275.20;49.20;;;;;;5047835;28;19913;-88
2022/12/17 18:52:34;;;;;;;;;;;-3275.10;49.40;;;;;;5036368;28;19930;-87
2022/12/17 18:54:59;;;;;;;;;;;-3275.00;49.40;;;;;;5011685;28;20320;-87
2022/12/17 18:57:25;;;;;;;;;;;-3275.00;49.40;;;;;;5010597;28;20384;-88
2022/12/17 18:59:50;;;;;;;;;;;-3275.00;49.40;;;;;;5011845;28;20265;-89
2022/12/17 19:02:16;;;;;;;;;;;-3275.00;49.50;;;;;;5010072;28;19921;-87
2022/12/17 19:04:41;;;;;;;;;;;-3274.90;49.60;;;;;;5010198;28;20357;-87
2022/12/17 19:07:07;;;;;;;;;;;-3274.90;49.60;;;;;;5012014;28;19918;-87
2022/12/17 19:09:35;;;;;;;;;;;-3274.90;49.60;;;;;;5011442;28;19916;-87
2022/12/17 19:12:02;;;;;;;;;;;-3274.90;49.70;;;;;;5012193;28;19931;-87
2022/12/17 19:14:28;;;;;;;;;;;-3274.80;49.60;;;;;;5011906;28;19910;-87
2022/12/17 19:16:54;;;;;;;;;;;-3274.80;49.70;;;;;;5009938;28;20035;-87
2022/12/17 19:19:20;;;;;;;;;;;-3274.80;49.70;;;;;;5009737;28;20004;-87
2022/12/17 19:21:46;;;;;;;;;;;-3274.80;49.70;;;;;;5012193;28;19949;-88
2022/12/17 19:24:13;;;;;;;;;;;-3274.80;49.80;;;;;;5011784;28;20344;-87
2022/12/17 19:26:39;;;;;;;;;;;-3274.80;50.00;;;;;;5010664;28;20395;-88
2022/12/17 19:29:07;;;;;;;;;;;-3274.90;50.00;;;;;;5011550;28;19944;-87
2022/12/17 19:31:32;;;;;;;;;;;-3274.90;50.00;;;;;;5009637;28;20327;-88
2022/12/17 19:33:59;;;;;;;;;;;-3274.80;49.90;;;;;;5010536;28;19913;-87
2022/12/17 19:36:25;;;;;;;;;;;-3274.80;50.10;;;;;;5012567;28;20071;-87
2022/12/17 19:38:55;;;;;;;;;;;-3274.90;50.10;;;;;;5011121;28;19940;-88
2022/12/17 19:41:21;;;;;;;;;;;-3274.80;50.10;;;;;;5014597;28;20023;-88
2022/12/17 19:43:51;;;;;;;;;;;-3274.90;50.00;;;;;;5014303;28;20317;-87
2022/12/17 19:46:17;;;;;;;;;;;-3274.80;50.00;;;;;;5013771;28;19914;-88
2022/12/17 19:48:43;;;;;;;;;;;-3274.80;50.10;;;;;;5013706;28;20269;-86
2022/12/17 19:51:09;;;;;;;;;;;-3274.90;50.10;;;;;;5013311;28;19914;-88
2022/12/17 19:53:36;;;;;;;;;;;-3274.90;50.00;;;;;;5012526;28;19936;-89
2022/12/17 19:56:21;;;;;;;;;;;-3274.90;50.10;;;;;;5011460;28;19956;-89
2022/12/17 19:58:49;;;;;;;;;;;-3274.90;50.20;;;;;;5011850;28;19944;-87
2022/12/17 20:01:22;;;;;;;;;;;-3274.90;50.00;;;;;;5013067;28;19913;-87
2022/12/17 20:03:48;;;;;;;;;;;-3274.90;50.00;;;;;;5012765;28;20844;-87
2022/12/17 20:06:15;;;;;;;;;;;-3274.80;50.00;;;;;;5013592;28;19910;-88
2022/12/17 20:08:40;;;;;;;;;;;-3274.80;49.80;;;;;;5012131;28;19925;-87
2022/12/17 20:11:31;;;;;;;;;;;-3274.80;49.70;;;;;;5013929;28;19965;-87
2022/12/17 20:13:56;;;;;;;;;;;-3274.80;49.60;;;;;;5012359;28;19921;-88
2022/12/17 20:16:22;;;;;;;;;;;-3274.80;49.70;;;;;;5014844;28;19920;-88
2022/12/17 20:18:48;;;;;;;;;;;-3274.80;49.80;;;;;;5011623;28;19918;-87
2022/12/17 20:21:13;;;;;;;;;;;-3274.70;49.70;;;;;;5014739;28;19910;-88
2022/12/17 20:23:39;;;;;;;;;;;-3274.70;49.60;;;;;;5012411;28;19926;-88
2022/12/17 20:26:05;;;;;;;;;;;-3274.60;49.50;;;;;;5013202;28;19910;-88
2022/12/17 20:28:32;;;;;;;;;;;-3274.60;49.50;;;;;;5014539;28;19928;-87
2022/12/17 20:30:58;;;;;;;;;;;-3274.60;49.60;;;;;;5011251;28;19909;-87
2022/12/17 20:33:23;;;;;;;;;;;-3274.60;49.60;;;;;;5011326;28;19921;-88
2022/12/17 20:35:49;;;;;;;;;;;-3274.60;49.60;;;;;;5010797;28;19909;-88
2022/12/17 20:38:14;;;;;;;;;;;-3274.60;49.90;;;;;;5010725;28;19925;-88
2022/12/17 20:40:40;;;;;;;;;;;-3274.60;49.90;;;;;;5013578;28;19924;-87
2022/12/17 20:43:06;;;;;;;;;;;-3274.60;49.70;;;;;;5013305;28;20079;-88
2022/12/17 20:45:32;;;;;;;;;;;-3274.60;49.50;;;;;;5022954;28;19921;-87
2022/12/17 20:47:57;;;;;;;;;;;-3274.60;49.40;;;;;;5022521;28;20380;-89
2022/12/17 20:50:23;;;;;;;;;;;-3274.50;49.30;;;;;;5053751;28;19921;-88
2022/12/17 20:52:48;;;;;;;;;;;-3274.50;49.30;;;;;;4956018;28;1836947;-89
2022/12/17 20:55:14;;;;;;;;;;;-3274.50;49.30;;;;;;5053646;28;20426;-89
2022/12/17 20:57:39;;;;;;;;;;;-3274.50;49.10;;;;;;5023175;28;19947;-89
2022/12/17 21:00:05;;;;;;;;;;;-3274.50;49.30;;;;;;5029467;28;19913;-88
2022/12/17 21:02:30;;;;;;;;;;;-3274.40;49.40;;;;;;5033293;28;19935;-88
2022/12/17 21:04:56;;;;;;;;;;;-3274.40;49.50;;;;;;5066336;28;20370;-88
2022/12/17 21:07:21;;;;;;;;;;;-3274.40;49.50;;;;;;5032695;28;19913;-88
2022/12/17 21:09:47;;;;;;;;;;;-3274.50;49.60;;;;;;5031705;28;19941;-88
2022/12/17 21:12:12;;;;;;;;;;;-3274.50;49.60;;;;;;5065952;28;20291;-87
2022/12/17 21:14:38;;;;;;;;;;;-3274.40;49.50;;;;;;5033444;28;19910;-88
2022/12/17 21:17:04;;;;;;;;;;;-3274.40;49.30;;;;;;5032097;28;19913;-88
2022/12/17 21:19:29;;;;;;;;;;;-3274.30;49.10;;;;;;5033424;28;20004;-88
2022/12/17 21:21:55;;;;;;;;;;;-3274.30;48.90;;;;;;5032782;28;19917;-88
2022/12/17 21:24:20;;;;;;;;;;;-3274.20;48.90;;;;;;5032065;28;20028;-88
2022/12/17 21:26:46;;;;;;;;;;;-3274.30;49.00;;;;;;5032483;28;19916;-89
2022/12/17 21:29:13;;;;;;;;;;;-3274.20;49.00;;;;;;5031915;28;20003;-87
2022/12/17 21:31:39;;;;;;;;;;;-3274.20;49.20;;;;;;5031141;28;19925;-89
2022/12/17 21:34:06;;;;;;;;;;;-3274.20;49.30;;;;;;5030454;28;19940;-88
2022/12/17 21:36:32;;;;;;;;;;;-3274.20;49.50;;;;;;5030718;28;20024;-88
2022/12/17 21:38:58;;;;;;;;;;;-3274.20;50.00;;;;;;5032628;28;19914;-87
2022/12/17 21:41:25;;;;;;;;;;;-3274.20;50.00;;;;;;5032573;28;19967;-87
2022/12/17 21:43:55;;;;;;;;;;;-3274.20;49.80;;;;;;5031579;28;19925;-88
2022/12/17 21:46:20;;;;;;;;;;;-3274.20;49.50;;;;;;5030234;28;19964;-88
2022/12/17 21:48:46;;;;;;;;;;;-3274.20;49.30;;;;;;5032313;28;19945;-88
2022/12/17 21:51:12;;;;;;;;;;;-3274.20;49.20;;;;;;5032974;28;19913;-86
2022/12/17 21:53:41;;;;;;;;;;;-3274.10;49.00;;;;;;5032536;28;19921;-88
2022/12/17 21:56:08;;;;;;;;;;;-3274.10;48.90;;;;;;5030345;28;19913;-88
2022/12/17 21:58:34;;;;;;;;;;;-3274.10;49.10;;;;;;5031402;28;19924;-89
2022/12/17 22:01:23;;;;;;;;;;;-3274.00;49.30;;;;;;5030307;28;19910;-90
2022/12/17 22:03:49;;;;;;;;;;;-3274.10;49.40;;;;;;5029755;28;19932;-89
2022/12/17 22:06:16;;;;;;;;;;;-3274.00;49.60;;;;;;5030977;28;19909;-89
2022/12/17 22:08:44;;;;;;;;;;;-3274.00;49.50;;;;;;5028043;28;19921;-89
2022/12/17 22:11:11;;;;;;;;;;;-3274.00;49.30;;;;;;5011098;28;20074;-86
2022/12/17 22:16:22;;;;;;;;;;;-3274.00;50.00;;;;;;5011203;28;19963;-87
2022/12/17 22:18:47;;;;;;;;;;;-3274.10;50.40;;;;;;5009842;28;19922;-87
2022/12/17 22:21:13;;;;;;;;;;;-3274.10;50.30;;;;;;5009741;28;19996;-88
2022/12/17 22:23:38;;;;;;;;;;;-3274.10;50.20;;;;;;5010085;28;20028;-88
2022/12/17 22:26:08;;;;;;;;;;;-3274.10;50.00;;;;;;5011662;28;19910;-87
2022/12/17 22:28:33;;;;;;;;;;;-3274.10;49.80;;;;;;5011522;28;19924;-86
2022/12/17 22:33:47;;;;;;;;;;;-3274.20;49.60;;;;;;5011591;28;19928;-88
2022/12/17 22:36:13;;;;;;;;;;;-3274.10;49.60;;;;;;5009815;28;19941;-88
2022/12/17 22:38:38;;;;;;;;;;;-3274.10;49.80;;;;;;5009411;28;20012;-88
2022/12/17 22:41:05;;;;;;;;;;;-3274.20;50.00;;;;;;5009537;28;19963;-87
2022/12/17 22:43:31;;;;;;;;;;;-3274.20;50.10;;;;;;5009490;28;19935;-89
2022/12/17 22:45:57;;;;;;;;;;;-3274.20;50.10;;;;;;5011374;28;19916;-88
2022/12/17 22:48:22;;;;;;;;;;;-3274.20;50.00;;;;;;5010897;28;19967;-87
2022/12/17 22:50:48;;;;;;;;;;;-3274.20;49.80;;;;;;5011001;28;19922;-87
2022/12/17 22:53:13;;;;;;;;;;;-3274.20;49.80;;;;;;5011457;28;19953;-88
2022/12/17 22:55:39;;;;;;;;;;;-3274.20;49.80;;;;;;5010637;28;20004;-88
2022/12/17 22:58:04;;;;;;;;;;;-3274.20;49.60;;;;;;5009936;28;20017;-88
2022/12/17 23:00:31;;;;;;;;;;;-3274.20;49.50;;;;;;5010312;28;20300;-88
2022/12/17 23:02:56;;;;;;;;;;;-3274.20;49.50;;;;;;5011394;28;19921;-88
2022/12/17 23:05:23;;;;;;;;;;;-3274.20;49.40;;;;;;5010563;28;19921;-89
2022/12/17 23:07:49;;;;;;;;;;;-3274.20;49.30;;;;;;5010167;28;20383;-87
2022/12/17 23:10:15;;;;;;;;;;;-3274.10;49.20;;;;;;5010931;28;19921;-87
2022/12/17 23:12:49;;;;;;;;;;;-3274.10;49.10;;;;;;5011676;28;20293;-87
2022/12/17 23:15:15;;;;;;;;;;;-3274.10;49.00;;;;;;5008788;28;19985;-88
2022/12/17 23:17:41;;;;;;;;;;;-3274.00;49.10;;;;;;5010216;28;19926;-89
2022/12/17 23:20:06;;;;;;;;;;;-3274.00;49.20;;;;;;5013840;28;19920;-88
2022/12/17 23:22:32;;;;;;;;;;;-3274.00;49.20;;;;;;5008736;28;19944;-88
2022/12/17 23:24:57;;;;;;;;;;;-3274.00;49.20;;;;;;5009625;28;19989;-86
2022/12/17 23:27:23;;;;;;;;;;;-3273.90;49.00;;;;;;5010346;28;19959;-88
2022/12/17 23:29:49;;;;;;;;;;;-3273.90;49.10;;;;;;5010536;28;19913;-89
2022/12/17 23:32:14;;;;;;;;;;;-3273.90;49.10;;;;;;5010547;28;20546;-89
2022/12/17 23:34:40;;;;;;;;;;;-3273.90;49.10;;;;;;5010099;28;20280;-88
2022/12/17 23:37:05;;;;;;;;;;;-3273.90;49.00;;;;;;5008963;28;19913;-87
2022/12/17 23:39:31;;;;;;;;;;;-3273.90;49.00;;;;;;5009412;28;20008;-88
2022/12/17 23:41:56;;;;;;;;;;;-3273.90;49.20;;;;;;5011537;28;19921;-89
2022/12/17 23:44:22;;;;;;;;;;;-3273.90;49.40;;;;;;5009406;28;19979;-88
2022/12/17 23:46:47;;;;;;;;;;;-3273.90;49.20;;;;;;5009109;28;19910;-88
2022/12/17 23:49:14;;;;;;;;;;;-3273.90;49.00;;;;;;5010682;28;20439;-86
2022/12/17 23:51:39;;;;;;;;;;;-3273.90;48.90;;;;;;5009425;28;19975;-87
2022/12/17 23:54:05;;;;;;;;;;;-3273.90;49.40;;;;;;5011195;28;20391;-87
2022/12/17 23:56:30;;;;;;;;;;;-3273.90;49.40;;;;;;5009883;28;19993;-88
2022/12/17 23:58:57;;;;;;;;;;;-3273.90;49.30;;;;;;5010238;28;19920;-88
